Time;durP1;ratioP1;P1;durP2;ratioP2;P2;SDS_P1;SDS_P2;PMS_P1;PMS_P2;Temp;Humidity;BMP_temperature;BMP_pressure;BME280_temperature;BME280_humidity;BME280_pressure;Samples;Min_cycle;Max_cycle;Signal;HPM_P1;HPM_P2
2021/09/29 00:00:10;;;;;;;6.03;5.72;;;;;;;10.42;94.92;101338.91;4407644;32;20076;-70
2021/09/29 00:02:36;;;;;;;4.60;4.40;;;;;;;10.24;94.75;101315.09;4421992;32;20186;-70
2021/09/29 00:05:01;;;;;;;5.43;5.22;;;;;;;10.33;94.78;101343.62;4412841;32;20583;-69
2021/09/29 00:07:26;;;;;;;4.12;3.92;;;;;;;10.27;94.88;101343.84;4414826;32;20063;-69
2021/09/29 00:09:52;;;;;;;4.43;4.22;;;;;;;10.10;95.10;101326.16;4410546;32;20071;-70
2021/09/29 00:12:17;;;;;;;4.20;4.00;;;;;;;10.18;94.97;101347.69;4409636;32;20550;-68
2021/09/29 00:14:42;;;;;;;4.50;4.30;;;;;;;10.14;95.41;101337.38;4421921;32;20057;-70
2021/09/29 00:17:08;;;;;;;5.72;5.50;;;;;;;10.13;96.13;101333.06;4410958;32;20084;-68
2021/09/29 00:19:33;;;;;;;4.28;4.07;;;;;;;10.09;95.66;101327.06;4411059;32;20479;-68
2021/09/29 00:21:59;;;;;;;5.40;5.18;;;;;;;10.07;96.58;101351.66;4424382;32;20171;-69
2021/09/29 00:24:24;;;;;;;4.40;4.20;;;;;;;10.03;96.32;101329.09;4410906;32;20502;-68
2021/09/29 00:26:50;;;;;;;4.30;4.10;;;;;;;9.98;96.59;101326.62;4424603;32;20134;-70
2021/09/29 00:29:15;;;;;;;4.40;4.20;;;;;;;9.97;96.58;101332.81;4415450;32;20078;-70
2021/09/29 00:31:40;;;;;;;4.20;4.00;;;;;;;9.83;97.22;101299.25;4411785;32;20076;-71
2021/09/29 00:34:08;;;;;;;6.05;5.75;;;;;;;9.96;97.32;101316.22;4412081;32;20483;-71
2021/09/29 00:36:35;;;;;;;4.30;4.10;;;;;;;9.95;97.09;101322.38;4407200;32;20092;-70
2021/09/29 00:39:00;;;;;;;6.30;6.00;;;;;;;9.93;97.09;101324.19;4422431;32;20071;-70
2021/09/29 00:41:26;;;;;;;4.57;4.37;;;;;;;9.92;97.83;101312.03;4420126;32;20609;-70
2021/09/29 00:43:51;;;;;;;4.32;4.12;;;;;;;9.92;97.89;101308.53;4422469;32;20085;-70
2021/09/29 00:46:17;;;;;;;4.68;4.47;;;;;;;9.95;97.54;101303.16;4414532;32;20084;-70
2021/09/29 00:48:42;;;;;;;4.30;4.10;;;;;;;9.93;98.20;101297.97;4412134;32;20057;-70
2021/09/29 00:51:08;;;;;;;6.56;6.26;;;;;;;9.93;97.54;101299.75;4409882;32;20079;-71
2021/09/29 00:53:33;;;;;;;4.60;4.40;;;;;;;9.89;98.21;101295.56;4427009;32;20540;-70
2021/09/29 00:55:59;;;;;;;4.32;4.12;;;;;;;9.82;97.74;101297.53;4421795;32;20091;-70
2021/09/29 00:58:24;;;;;;;4.30;4.10;;;;;;;9.78;97.93;101295.97;4415177;32;20079;-70
2021/09/29 01:00:49;;;;;;;4.50;4.30;;;;;;;9.75;98.50;101288.22;4422012;32;20901;-70
2021/09/29 01:03:15;;;;;;;4.20;4.00;;;;;;;9.76;98.91;101292.53;4415817;32;20086;-70
2021/09/29 01:05:41;;;;;;;4.20;4.00;;;;;;;9.80;99.08;101283.66;4424092;32;20060;-70
2021/09/29 01:08:06;;;;;;;5.90;5.65;;;;;;;9.79;99.16;101281.94;4427328;32;20103;-70
2021/09/29 01:10:43;;;;;;;4.50;4.30;;;;;;;9.78;98.62;101278.50;4434678;32;20064;-71
2021/09/29 01:13:26;;;;;;;6.47;6.18;;;;;;;9.84;99.16;101273.91;4421908;32;21035;-69
2021/09/29 01:15:56;;;;;;;4.12;3.92;;;;;;;9.84;98.59;101268.66;4413173;32;20255;-69
2021/09/29 01:18:23;;;;;;;4.30;4.10;;;;;;;9.87;99.47;101269.38;4409816;32;20088;-68
2021/09/29 01:20:53;;;;;;;4.35;4.15;;;;;;;9.87;99.40;101260.69;4429058;32;20248;-71
2021/09/29 01:23:39;;;;;;;4.68;4.47;;;;;;;9.86;98.58;101257.22;4415724;32;20090;-68
2021/09/29 01:26:14;;;;;;;4.90;4.70;;;;;;;9.89;98.81;101250.97;4428754;32;20154;-69
2021/09/29 01:28:44;;;;;;;4.85;4.65;;;;;;;9.89;99.04;101256.22;4424953;32;20696;-68
2021/09/29 01:31:10;;;;;;;5.50;5.30;;;;;;;9.87;98.83;101251.03;4435912;32;20577;-69
2021/09/29 01:33:35;;;;;;;4.50;4.30;;;;;;;9.60;99.22;101213.66;4422974;32;20075;-69
2021/09/29 01:36:00;;;;;;;5.03;4.82;;;;;;;9.91;99.00;101243.91;4429559;32;20056;-69
2021/09/29 01:38:26;;;;;;;4.30;4.10;;;;;;;9.94;99.20;101247.25;4416795;32;20060;-69
2021/09/29 01:40:51;;;;;;;4.20;4.00;;;;;;;9.94;99.11;101231.53;4408859;32;20134;-69
2021/09/29 01:43:17;;;;;;;4.75;4.55;;;;;;;9.97;98.63;101230.53;4427988;32;20192;-68
2021/09/29 01:45:43;;;;;;;4.30;4.10;;;;;;;9.87;99.20;101209.09;4426458;32;20069;-68
2021/09/29 01:48:09;;;;;;;6.03;5.72;;;;;;;10.03;99.05;101229.44;4426247;32;20060;-68
2021/09/29 01:50:34;;;;;;;4.12;3.92;;;;;;;10.03;99.44;101226.81;4426682;32;21149;-69
2021/09/29 01:53:00;;;;;;;5.05;4.85;;;;;;;9.96;99.17;101194.75;4414984;32;20095;-69
2021/09/29 01:55:26;;;;;;;4.20;4.00;;;;;;;10.14;98.36;101219.34;4428158;32;20064;-69
2021/09/29 01:57:52;;;;;;;4.47;4.28;;;;;;;10.18;98.74;101220.91;4414634;32;20210;-68
2021/09/29 02:00:17;;;;;;;4.30;4.10;;;;;;;10.20;98.26;101208.59;4419744;32;20059;-68
2021/09/29 02:02:43;;;;;;;5.25;5.03;;;;;;;10.21;98.39;101205.06;4429583;32;20565;-69
2021/09/29 02:05:09;;;;;;;5.60;5.37;;;;;;;10.20;98.66;101198.09;4422104;32;20136;-69
2021/09/29 02:07:34;;;;;;;4.40;4.20;;;;;;;10.23;98.45;101202.38;4422858;32;20090;-69
2021/09/29 02:10:00;;;;;;;5.60;5.40;;;;;;;10.26;97.64;101197.00;4427132;32;20096;-69
2021/09/29 02:12:25;;;;;;;4.15;3.95;;;;;;;10.26;97.69;101194.38;4432203;32;20083;-69
2021/09/29 02:14:50;;;;;;;4.40;4.20;;;;;;;10.27;97.79;101196.94;4422995;32;20111;-70
2021/09/29 02:17:17;;;;;;;5.10;4.90;;;;;;;10.28;97.32;101195.16;4406907;32;20476;-71
2021/09/29 02:19:43;;;;;;;4.45;4.25;;;;;;;10.25;97.20;101190.91;4421891;32;20097;-71
2021/09/29 02:22:08;;;;;;;6.05;5.75;;;;;;;10.22;97.13;101192.78;4424577;32;20864;-71
2021/09/29 02:24:34;;;;;;;4.47;4.28;;;;;;;10.18;97.56;101192.94;4420175;32;20093;-70
2021/09/29 02:26:59;;;;;;;5.82;5.55;;;;;;;10.16;97.35;101199.16;4426056;32;20076;-71
2021/09/29 02:29:25;;;;;;;4.30;4.10;;;;;;;10.15;97.32;101194.84;4420777;32;20067;-71
2021/09/29 02:31:50;;;;;;;4.20;4.00;;;;;;;10.13;97.23;101188.81;4424888;32;20079;-71
2021/09/29 02:34:15;;;;;;;4.50;4.30;;;;;;;10.08;97.70;101183.75;4404362;32;20646;-71
2021/09/29 02:36:41;;;;;;;4.15;3.95;;;;;;;10.06;97.56;101187.34;4419284;32;20057;-71
2021/09/29 02:39:06;;;;;;;4.20;4.00;;;;;;;10.04;97.24;101184.78;4427862;32;20060;-71
2021/09/29 02:41:32;;;;;;;4.32;4.12;;;;;;;10.01;97.43;101174.44;4411901;32;20068;-71
2021/09/29 02:43:57;;;;;;;4.80;4.60;;;;;;;9.95;96.64;101170.28;4419800;32;20186;-71
2021/09/29 02:46:22;;;;;;;4.25;4.05;;;;;;;9.94;96.57;101171.22;4408706;32;20495;-69
2021/09/29 02:48:48;;;;;;;4.22;4.03;;;;;;;9.91;96.56;101166.09;4409135;32;20083;-68
2021/09/29 02:51:13;;;;;;;5.68;5.45;;;;;;;9.87;96.54;101168.94;4406324;32;20592;-71
2021/09/29 02:53:38;;;;;;;4.20;4.00;;;;;;;9.83;96.79;101168.19;4412325;32;20402;-70
2021/09/29 02:56:04;;;;;;;6.55;6.25;;;;;;;9.81;96.78;101162.16;4407968;32;20566;-69
2021/09/29 02:58:29;;;;;;;4.20;4.00;;;;;;;9.75;97.34;101160.62;4426426;32;20075;-68
2021/09/29 03:00:56;;;;;;;4.72;4.53;;;;;;;9.73;97.55;101159.84;4422964;32;20631;-68
2021/09/29 03:03:21;;;;;;;4.47;4.28;;;;;;;9.69;97.60;101160.06;4418660;32;20072;-68
2021/09/29 03:05:47;;;;;;;4.12;3.92;;;;;;;9.63;97.37;101153.28;4417662;32;20547;-67
2021/09/29 03:08:13;;;;;;;4.10;3.90;;;;;;;8.32;96.90;100924.66;4430250;32;20278;-68
2021/09/29 03:10:40;;;;;;;4.40;4.20;;;;;;;9.66;97.82;101168.03;4423500;32;20649;-68
2021/09/29 03:13:06;;;;;;;4.20;4.00;;;;;;;9.68;97.96;101150.47;4426937;32;20079;-68
2021/09/29 03:15:31;;;;;;;4.25;4.05;;;;;;;9.62;98.04;101143.72;4417671;32;20488;-68
2021/09/29 03:17:57;;;;;;;4.50;4.30;;;;;;;9.17;96.72;101094.91;4413436;32;20149;-68
2021/09/29 03:20:24;;;;;;;4.30;4.10;;;;;;;9.62;96.99;101150.72;4433775;32;20082;-68
2021/09/29 03:22:50;;;;;;;4.22;4.03;;;;;;;9.62;96.92;101148.09;4429228;32;20809;-68
2021/09/29 03:25:16;;;;;;;4.20;4.00;;;;;;;9.57;97.73;101150.91;4426195;32;20298;-68
2021/09/29 03:27:42;;;;;;;4.03;3.83;;;;;;;9.56;97.07;101150.06;4424527;32;20590;-68
2021/09/29 03:30:07;;;;;;;4.18;3.97;;;;;;;9.36;97.43;101115.94;4408322;32;20336;-68
2021/09/29 03:32:33;;;;;;;3.80;3.70;;;;;;;9.55;97.02;101140.50;4425597;32;20087;-68
2021/09/29 03:34:58;;;;;;;5.07;4.87;;;;;;;9.55;97.62;101143.13;4421777;32;20073;-69
2021/09/29 03:37:23;;;;;;;4.00;3.80;;;;;;;9.53;97.06;101137.09;4427456;32;20079;-68
2021/09/29 03:39:49;;;;;;;4.10;3.90;;;;;;;9.51;97.64;101125.81;4419576;32;20146;-68
2021/09/29 03:42:15;;;;;;;4.60;4.40;;;;;;;9.54;96.78;101130.06;4420799;32;20332;-68
2021/09/29 03:44:40;;;;;;;4.40;4.20;;;;;;;9.55;96.97;101126.56;4417774;32;20072;-70
2021/09/29 03:47:05;;;;;;;5.93;5.65;;;;;;;9.55;97.35;101116.06;4404757;32;20064;-68
2021/09/29 03:49:31;;;;;;;4.18;3.97;;;;;;;9.56;97.30;101120.38;4422261;32;20601;-68
2021/09/29 03:51:56;;;;;;;4.82;4.62;;;;;;;9.53;97.35;101116.13;4418634;32;20081;-68
2021/09/29 03:54:21;;;;;;;4.20;4.00;;;;;;;9.51;96.85;101110.09;4421959;32;20226;-69
2021/09/29 03:56:47;;;;;;;4.43;4.22;;;;;;;9.54;97.13;101111.72;4413093;32;20076;-68
2021/09/29 03:59:12;;;;;;;5.40;5.20;;;;;;;9.35;96.22;101088.06;4411978;32;20630;-68
2021/09/29 04:01:38;;;;;;;4.30;4.10;;;;;;;9.44;96.13;101111.28;4416656;32;20661;-68
2021/09/29 04:04:03;;;;;;;4.62;4.43;;;;;;;9.46;96.26;101105.94;4425243;32;20064;-68
2021/09/29 04:06:29;;;;;;;4.03;3.83;;;;;;;9.45;97.15;101106.88;4407578;32;20065;-68
2021/09/29 04:08:55;;;;;;;4.30;4.10;;;;;;;9.44;96.97;101098.19;4426088;32;20115;-69
2021/09/29 04:11:21;;;;;;;4.40;4.20;;;;;;;9.41;97.69;101098.28;4426335;32;20571;-69
2021/09/29 04:13:46;;;;;;;4.18;3.97;;;;;;;9.42;96.90;101104.37;4422081;32;20080;-68
2021/09/29 04:16:11;;;;;;;5.68;5.45;;;;;;;9.38;97.37;101099.28;4420305;32;20674;-68
2021/09/29 04:18:37;;;;;;;4.30;4.10;;;;;;;9.41;97.85;101097.44;4420853;32;20068;-68
2021/09/29 04:21:03;;;;;;;6.20;5.90;;;;;;;9.39;97.74;101100.97;4419231;32;20100;-68
2021/09/29 04:23:28;;;;;;;4.40;4.20;;;;;;;9.39;97.61;101102.75;4417215;32;20083;-68
2021/09/29 04:25:54;;;;;;;4.00;3.80;;;;;;;9.38;97.60;101108.88;4423683;32;20190;-69
2021/09/29 04:28:20;;;;;;;4.10;3.90;;;;;;;9.38;98.35;101098.41;4425979;32;20118;-68
2021/09/29 04:30:45;;;;;;;4.20;4.00;;;;;;;9.21;97.63;101065.06;4417813;32;20099;-68
2021/09/29 04:33:10;;;;;;;6.47;6.18;;;;;;;9.42;97.88;101099.13;4421618;32;20060;-68
2021/09/29 04:35:38;;;;;;;4.10;3.90;;;;;;;9.44;98.20;101100.81;4426767;32;20088;-68
2021/09/29 04:38:04;;;;;;;5.90;5.65;;;;;;;9.42;97.42;101105.25;4422050;32;20078;-68
2021/09/29 04:40:29;;;;;;;4.47;4.28;;;;;;;9.34;97.98;101091.59;4425996;32;20732;-70
2021/09/29 04:42:54;;;;;;;3.90;3.75;;;;;;;9.41;97.92;101102.69;4429986;32;20081;-68
2021/09/29 04:45:20;;;;;;;4.43;4.22;;;;;;;9.43;97.50;101099.09;4417114;32;20087;-70
2021/09/29 04:47:45;;;;;;;4.40;4.20;;;;;;;9.41;97.46;101098.28;4433312;32;20098;-68
2021/09/29 04:50:10;;;;;;;4.30;4.10;;;;;;;9.43;98.34;101093.84;4418610;32;20129;-68
2021/09/29 04:52:36;;;;;;;4.20;4.00;;;;;;;9.44;98.08;101095.56;4413093;32;20087;-68
2021/09/29 04:55:01;;;;;;;4.45;4.25;;;;;;;9.46;97.79;101091.09;4427816;32;20064;-68
2021/09/29 04:57:28;;;;;;;4.40;4.20;;;;;;;9.47;97.32;101086.72;4429146;32;20072;-69
2021/09/29 04:59:54;;;;;;;4.40;4.20;;;;;;;9.44;97.19;101082.47;4419239;32;20201;-70
2021/09/29 05:02:19;;;;;;;4.20;4.00;;;;;;;9.43;97.01;101085.97;4426425;32;20084;-70
2021/09/29 05:04:45;;;;;;;4.50;4.30;;;;;;;9.45;97.54;101086.78;4425140;32;20084;-68
2021/09/29 05:07:17;;;;;;;4.30;4.10;;;;;;;9.51;97.09;101081.28;4425029;32;20492;-68
2021/09/29 05:09:44;;;;;;;4.10;3.90;;;;;;;9.52;97.08;101083.00;4429828;32;20068;-68
2021/09/29 05:12:28;;;;;;;5.43;5.22;;;;;;;9.54;97.56;101085.53;4429912;32;20079;-70
2021/09/29 05:14:54;;;;;;;4.40;4.20;;;;;;;9.46;96.52;101066.66;4418436;32;20088;-70
2021/09/29 05:17:20;;;;;;;4.10;3.90;;;;;;;9.55;96.64;101071.53;4409526;32;20497;-68
2021/09/29 05:19:45;;;;;;;4.22;4.03;;;;;;;9.53;96.61;101071.59;4411063;32;20076;-68
2021/09/29 05:22:11;;;;;;;6.03;5.72;;;;;;;9.25;97.22;101008.19;4412330;32;20076;-68
2021/09/29 05:24:36;;;;;;;4.35;4.15;;;;;;;9.68;96.58;101066.59;4406445;32;20073;-69
2021/09/29 05:27:01;;;;;;;5.28;5.07;;;;;;;9.73;96.63;101067.28;4394377;32;20443;-70
2021/09/29 05:29:27;;;;;;;4.30;4.10;;;;;;;9.81;96.86;101064.34;4404715;32;20905;-70
2021/09/29 05:31:52;;;;;;;4.40;4.20;;;;;;;9.86;96.07;101065.84;4398652;32;20091;-68
2021/09/29 05:34:17;;;;;;;4.25;4.05;;;;;;;9.89;95.80;101054.37;4405809;32;20138;-68
2021/09/29 05:36:45;;;;;;;4.50;4.20;;;;;;;9.66;95.70;101016.03;4393469;32;20067;-68
2021/09/29 05:39:11;;;;;;;5.60;5.40;;;;;;;10.06;95.18;101064.09;4417783;32;20088;-68
2021/09/29 05:41:36;;;;;;;4.30;4.10;;;;;;;9.93;95.20;101034.97;4394329;32;20092;-71
2021/09/29 05:44:02;;;;;;;5.90;5.60;;;;;;;10.26;94.15;101068.47;4396332;32;20072;-68
2021/09/29 05:46:29;;;;;;;4.05;3.85;;;;;;;10.36;94.02;101062.78;4409116;32;20136;-68
2021/09/29 05:48:54;;;;;;;4.40;4.20;;;;;;;9.45;92.69;100886.84;4404112;32;20087;-68
2021/09/29 05:51:20;;;;;;;4.53;4.32;;;;;;;10.57;91.59;101060.09;4406138;32;20060;-69
2021/09/29 05:53:45;;;;;;;4.37;4.18;;;;;;;10.70;90.88;101055.94;4410585;32;20076;-69
2021/09/29 05:56:11;;;;;;;5.93;5.65;;;;;;;10.65;89.69;101029.06;4404391;32;20092;-75
2021/09/29 05:58:36;;;;;;;4.40;4.20;;;;;;;10.88;89.25;101048.97;4406803;32;20583;-70
2021/09/29 06:01:02;;;;;;;6.43;6.12;;;;;;;10.95;88.75;101055.66;4391397;32;20638;-69
2021/09/29 06:03:27;;;;;;;4.30;4.10;;;;;;;11.04;88.87;101066.63;4402330;32;20805;-72
2021/09/29 06:05:53;;;;;;;4.40;4.20;;;;;;;11.03;88.39;101064.94;4396043;32;20076;-71
2021/09/29 06:08:18;;;;;;;4.28;4.07;;;;;;;11.00;89.08;101070.31;4410319;32;20079;-71
2021/09/29 06:10:43;;;;;;;4.22;4.03;;;;;;;10.99;88.97;101074.75;4406502;32;20341;-70
2021/09/29 06:13:09;;;;;;;6.25;5.95;;;;;;;10.94;89.32;101069.72;4408518;32;20076;-72
2021/09/29 06:15:34;;;;;;;4.55;4.35;;;;;;;10.93;89.91;101073.25;4411720;32;20681;-71
2021/09/29 06:18:03;;;;;;;6.28;5.97;;;;;;;10.86;90.27;101066.56;4402963;32;20133;-72
2021/09/29 06:20:32;;;;;;;4.90;4.65;;;;;;;10.90;90.21;101077.78;4405816;32;20073;-72
2021/09/29 06:22:58;;;;;;;4.85;4.65;;;;;;;10.60;90.80;101017.09;4412971;32;20581;-70
2021/09/29 06:25:23;;;;;;;4.40;4.20;;;;;;;10.78;91.04;101058.22;4415908;32;20505;-72
2021/09/29 06:27:49;;;;;;;4.22;4.03;;;;;;;10.86;91.67;101069.19;4413945;32;20080;-72
2021/09/29 06:30:14;;;;;;;5.53;5.30;;;;;;;10.84;92.12;101060.53;4419522;32;20147;-72
2021/09/29 06:32:40;;;;;;;4.43;4.22;;;;;;;10.81;92.30;101065.97;4407446;32;20080;-71
2021/09/29 06:35:07;;;;;;;5.97;5.68;;;;;;;10.82;92.83;101079.94;4411400;32;20202;-70
2021/09/29 06:37:38;;;;;;;4.53;4.32;;;;;;;10.84;93.43;101078.09;4409494;32;20075;-71
2021/09/29 06:40:05;;;;;;;6.28;5.87;;;;;;;10.83;93.67;101082.50;4423424;32;20118;-71
2021/09/29 06:42:31;;;;;;;4.20;4.00;;;;;;;10.85;93.33;101079.78;4419619;32;20404;-70
2021/09/29 06:44:56;;;;;;;4.85;4.65;;;;;;;10.84;93.60;101075.47;4406106;32;20341;-72
2021/09/29 06:47:21;;;;;;;4.62;4.43;;;;;;;10.76;94.22;101058.31;4422474;32;20104;-74
2021/09/29 06:49:47;;;;;;;4.35;4.15;;;;;;;10.87;94.44;101075.31;4410733;32;20068;-70
2021/09/29 06:52:12;;;;;;;6.25;5.95;;;;;;;10.87;94.59;101068.28;4416001;32;20697;-71
2021/09/29 06:54:38;;;;;;;4.65;4.43;;;;;;;10.86;94.46;101056.06;4407303;32;20069;-72
2021/09/29 06:57:03;;;;;;;5.75;5.53;;;;;;;10.87;95.06;101065.66;4416890;32;20065;-72
2021/09/29 06:59:28;;;;;;;4.00;3.80;;;;;;;10.90;94.25;101060.25;4424959;32;20111;-70
2021/09/29 07:01:54;;;;;;;4.50;4.30;;;;;;;10.92;94.85;101047.06;4407890;32;20096;-70
2021/09/29 07:04:19;;;;;;;4.57;4.37;;;;;;;10.91;95.01;101053.25;4414408;32;20075;-70
2021/09/29 07:06:44;;;;;;;4.50;4.30;;;;;;;10.93;95.41;101052.25;4420822;32;20138;-69
2021/09/29 07:09:10;;;;;;;5.90;5.62;;;;;;;10.11;95.50;100897.75;4413012;32;20162;-69
2021/09/29 07:11:35;;;;;;;4.10;3.90;;;;;;;11.08;95.67;101050.63;4405818;32;20112;-69
2021/09/29 07:14:02;;;;;;;5.87;5.60;;;;;;;11.20;95.93;101053.59;4413463;32;20125;-69
2021/09/29 07:16:28;;;;;;;4.30;4.10;;;;;;;11.32;95.59;101056.47;4415790;32;20082;-70
2021/09/29 07:18:57;;;;;;;4.43;4.22;;;;;;;10.17;94.89;100863.38;4427758;32;20078;-71
2021/09/29 07:21:23;;;;;;;4.40;4.20;;;;;;;11.47;94.86;101062.75;4412972;32;20088;-71
2021/09/29 07:23:48;;;;;;;4.50;4.30;;;;;;;11.50;94.68;101073.09;4426539;32;20064;-71
2021/09/29 07:26:13;;;;;;;5.12;4.93;;;;;;;11.54;94.07;101073.78;4419286;32;20497;-73
2021/09/29 07:28:39;;;;;;;4.30;4.10;;;;;;;11.48;94.19;101071.47;4421947;32;20084;-70
2021/09/29 07:31:04;;;;;;;5.75;5.50;;;;;;;11.50;94.07;101062.56;4421860;32;20072;-70
2021/09/29 07:33:33;;;;;;;4.10;3.90;;;;;;;11.45;94.54;101061.13;4411696;32;20145;-71
2021/09/29 07:35:58;;;;;;;4.90;4.50;;;;;;;11.42;95.17;101064.75;4426130;32;20140;-69
2021/09/29 07:38:26;;;;;;;4.40;4.20;;;;;;;11.42;95.60;101054.22;4422053;32;20075;-70
2021/09/29 07:40:53;;;;;;;4.28;4.07;;;;;;;11.46;96.01;101060.19;4425729;32;20083;-72
2021/09/29 07:43:18;;;;;;;4.25;4.05;;;;;;;11.58;96.04;101056.94;4412238;32;20461;-71
2021/09/29 07:45:44;;;;;;;4.50;4.30;;;;;;;11.65;96.01;101045.19;4426638;32;20588;-69
2021/09/29 07:50:23;;;;;;;4.25;4.05;;;;;;;11.86;95.50;101042.38;4483289;31;20268;-71
2021/09/29 07:52:48;;;;;;;4.32;4.12;;;;;;;11.93;95.11;101034.13;4440094;32;20183;-72
2021/09/29 07:55:13;;;;;;;5.40;5.20;;;;;;;12.02;94.59;101038.03;4415257;32;20325;-71
2021/09/29 07:57:39;;;;;;;4.30;4.10;;;;;;;12.06;94.21;101030.84;4420669;32;20064;-71
2021/09/29 08:00:05;;;;;;;5.62;5.43;;;;;;;12.03;94.13;101028.38;4419301;32;20087;-69
2021/09/29 08:02:31;;;;;;;4.20;4.00;;;;;;;11.71;94.15;100991.47;4419896;32;20123;-69
2021/09/29 08:05:00;;;;;;;4.40;4.20;;;;;;;12.07;93.86;101040.47;4424626;32;20084;-69
2021/09/29 08:07:26;;;;;;;4.45;4.25;;;;;;;12.05;93.90;101045.78;4396708;32;20099;-69
2021/09/29 08:09:51;;;;;;;4.20;4.00;;;;;;;12.08;93.84;101050.03;4399063;32;20073;-72
2021/09/29 08:12:16;;;;;;;4.62;4.43;;;;;;;11.99;93.96;101043.47;4403932;32;20104;-69
2021/09/29 08:14:42;;;;;;;5.32;5.12;;;;;;;11.97;94.23;101047.97;4416026;32;20649;-69
2021/09/29 08:17:07;;;;;;;5.70;5.47;;;;;;;11.56;94.46;100979.94;4387212;32;20077;-71
2021/09/29 08:19:33;;;;;;;4.30;4.10;;;;;;;11.97;94.34;101035.66;4401891;32;20178;-70
2021/09/29 08:22:02;;;;;;;5.12;4.93;;;;;;;11.96;94.70;101046.25;4403057;32;20750;-70
2021/09/29 08:24:36;;;;;;;4.45;4.25;;;;;;;12.00;94.67;101039.06;4430682;32;20261;-72
2021/09/29 08:27:06;;;;;;;5.25;5.05;;;;;;;11.82;94.87;101002.25;4404342;32;20076;-70
2021/09/29 08:34:58;;;;;;;4.50;4.30;;;;;;;12.14;94.94;101026.03;4423835;32;20068;-68
2021/09/29 08:37:40;;;;;;;4.35;4.15;;;;;;;12.20;94.86;101030.13;4430546;32;20570;-72
2021/09/29 08:40:23;;;;;;;6.50;6.10;;;;;;;12.26;94.85;101028.00;4416951;32;20088;-72
2021/09/29 08:43:16;;;;;;;;;;;;;;;12.27;94.35;101023.59;4403428;32;20073;-72
2021/09/29 08:46:05;;;;;;;4.35;4.15;;;;;;;11.27;94.08;100850.09;4438268;32;20527;-72
2021/09/29 08:48:40;;;;;;;4.05;3.85;;;;;;;12.40;94.08;101021.97;4431296;32;20073;-71
2021/09/29 08:53:53;;;;;;;4.90;4.70;;;;;;;12.47;93.80;101018.09;4422106;32;20073;-72
2021/09/29 08:56:37;;;;;;;4.70;4.50;;;;;;;12.36;93.24;101016.03;4433300;32;20087;-73
2021/09/29 09:15:51;;;;;;;4.55;4.35;;;;;;;12.72;92.50;101048.31;4387716;32;20096;-76
2021/09/29 09:18:16;;;;;;;4.62;4.43;;;;;;;12.66;92.66;101059.19;4379716;32;20758;-73
2021/09/29 09:20:46;;;;;;;4.32;4.12;;;;;;;12.60;92.55;101052.47;4396054;32;20072;-73
2021/09/29 09:23:12;;;;;;;5.37;5.18;;;;;;;12.46;92.83;101052.38;4374929;32;20062;-70
2021/09/29 09:25:42;;;;;;;4.40;4.20;;;;;;;12.08;93.99;101023.72;4382445;32;20108;-74
2021/09/29 09:28:10;;;;;;;5.37;5.18;;;;;;;12.48;93.11;101082.13;4368011;32;20660;-75
2021/09/29 09:30:36;;;;;;;4.28;4.07;;;;;;;12.50;91.16;101082.88;4383506;32;20100;-74
2021/09/29 09:33:02;;;;;;;5.95;5.68;;;;;;;12.70;90.58;101089.69;4388943;32;20138;-74
2021/09/29 09:35:39;;;;;;;4.37;4.18;;;;;;;12.75;89.99;101091.16;4393998;32;20097;-73
2021/09/29 09:38:10;;;;;;;5.80;5.55;;;;;;;12.72;88.06;101093.94;4402821;32;20192;-71
2021/09/29 09:40:36;;;;;;;4.40;4.20;;;;;;;12.82;87.45;101094.28;4394001;32;20606;-70
2021/09/29 09:43:02;;;;;;;5.60;5.40;;;;;;;12.68;87.14;101054.69;4396666;32;20084;-72
2021/09/29 09:45:30;;;;;;;4.53;4.32;;;;;;;12.95;86.70;101097.09;4392126;32;20505;-74
2021/09/29 09:47:56;;;;;;;4.40;4.20;;;;;;;12.76;86.01;101066.50;4374032;32;20089;-71
2021/09/29 09:50:28;;;;;;;4.40;4.20;;;;;;;12.99;86.19;101098.63;4377786;32;21030;-71
2021/09/29 09:52:53;;;;;;;4.60;4.40;;;;;;;12.73;86.31;101092.19;4398052;32;20610;-71
2021/09/29 09:55:19;;;;;;;4.40;4.20;;;;;;;12.75;86.15;101080.63;4393308;32;20091;-71
2021/09/29 09:57:50;;;;;;;4.37;4.18;;;;;;;12.29;85.49;101025.22;4400067;32;20076;-72
2021/09/29 10:00:18;;;;;;;4.82;4.62;;;;;;;12.68;85.85;101075.75;4400586;32;20095;-70
2021/09/29 10:02:47;;;;;;;4.70;4.50;;;;;;;12.59;86.19;101079.75;4392798;32;20338;-70
2021/09/29 10:05:15;;;;;;;5.45;5.25;;;;;;;12.52;86.07;101086.28;4392150;32;20547;-72
2021/09/29 10:07:40;;;;;;;4.37;4.18;;;;;;;12.49;86.21;101075.94;4383339;32;20073;-72
2021/09/29 10:13:00;;;;;;;4.25;4.05;;;;;;;12.74;86.31;101083.31;4421717;32;20097;-72
2021/09/29 10:26:07;;;;;;;4.20;4.00;;;;;;;13.13;83.46;101114.50;4409276;32;20143;-71
2021/09/29 10:27:15;;;;;;;5.85;5.60;;;;;;;13.49;82.70;101097.56;4396472;32;20123;-70
2021/09/29 10:29:44;;;;;;;4.55;4.35;;;;;;;13.32;82.01;101029.16;4369137;32;20133;-71
2021/09/29 10:32:19;;;;;;;5.93;5.62;;;;;;;13.76;79.86;101081.06;4404002;32;20069;-71
2021/09/29 10:43:01;;;;;;;4.50;4.30;;;;;;;13.48;77.13;101118.75;4383153;32;20164;-71
2021/09/29 11:30:24;;;;;;;5.78;5.53;;;;;;;15.48;70.87;101152.25;4390490;32;20218;-71
2021/09/29 11:33:00;;;;;;;4.80;4.60;;;;;;;15.23;70.55;101117.75;4389672;32;20078;-71
2021/09/29 11:35:44;;;;;;;4.57;4.37;;;;;;;15.34;69.97;101155.78;4386373;32;20080;-70
2021/09/29 12:08:50;;;;;;;4.85;4.65;;;;;;;15.31;68.69;101187.69;4391987;32;20095;-71
2021/09/29 12:11:20;;;;;;;6.05;5.75;;;;;;;15.40;67.23;101196.03;4388508;32;20073;-72
2021/09/29 12:13:58;;;;;;;4.70;4.50;;;;;;;15.50;67.49;101199.75;4412663;32;20087;-72
2021/09/29 12:16:30;;;;;;;4.72;4.53;;;;;;;15.37;66.90;101199.69;4376751;32;20543;-72
2021/09/29 12:19:04;;;;;;;5.05;4.85;;;;;;;15.09;66.41;101196.16;4411872;32;20199;-71
2021/09/29 12:21:35;;;;;;;4.68;4.47;;;;;;;15.42;66.01;101210.84;4396231;32;20061;-72
2021/09/29 12:24:00;;;;;;;5.53;5.32;;;;;;;15.78;65.15;101212.06;4381937;32;20096;-73
2021/09/29 12:26:28;;;;;;;4.90;4.70;;;;;;;15.93;65.29;101211.03;4367764;32;20100;-71
2021/09/29 12:29:12;;;;;;;4.90;4.70;;;;;;;16.34;64.11;101188.88;4365196;32;20088;-73
2021/09/29 12:32:03;;;;;;;4.90;4.70;;;;;;;16.86;60.79;101212.75;4389754;32;20567;-71
2021/09/29 12:36:54;;;;;;;4.90;4.70;;;;;;;16.79;58.88;101200.81;4403675;32;20076;-70
2021/09/29 12:39:25;;;;;;;4.90;4.70;;;;;;;16.62;59.31;101175.50;4387798;32;20106;-73
2021/09/29 12:41:52;;;;;;;4.87;4.68;;;;;;;16.95;59.91;101204.13;4383955;32;20170;-70
2021/09/29 12:44:18;;;;;;;4.93;4.72;;;;;;;17.18;59.01;101201.62;4405775;32;20096;-70
2021/09/29 12:46:49;;;;;;;4.90;4.70;;;;;;;17.21;58.52;101198.75;4400168;32;20077;-70
2021/09/29 12:49:21;;;;;;;5.60;5.40;;;;;;;17.32;59.04;101207.63;4400266;32;20081;-71
2021/09/29 12:51:55;;;;;;;5.10;4.90;;;;;;;17.34;58.28;101167.75;4395170;32;20116;-71
2021/09/29 12:54:23;;;;;;;4.82;4.62;;;;;;;17.03;58.70;101269.88;4399659;32;20087;-71
2021/09/29 12:56:48;;;;;;;5.07;4.87;;;;;;;15.33;58.70;101280.16;4387613;32;20061;-71
2021/09/29 12:59:14;;;;;;;6.07;5.78;;;;;;;13.61;60.77;101333.38;4366477;32;20782;-71
2021/09/29 13:01:39;;;;;;;4.60;4.40;;;;;;;12.73;65.35;101324.78;4384411;32;20130;-70
2021/09/29 13:04:04;;;;;;;6.07;5.78;;;;;;;12.52;68.45;101317.97;4376638;32;20058;-70
2021/09/29 13:06:30;;;;;;;4.65;4.45;;;;;;;12.49;69.44;101326.03;4378622;32;20169;-69
2021/09/29 13:08:55;;;;;;;5.15;4.80;;;;;;;11.24;69.49;101189.97;4400958;32;20328;-70
2021/09/29 13:11:21;;;;;;;4.60;4.40;;;;;;;12.06;71.07;101322.88;4386938;32;20949;-70
2021/09/29 13:13:46;;;;;;;4.78;4.57;;;;;;;12.22;71.24;101334.34;4395921;32;20085;-68
2021/09/29 13:16:11;;;;;;;5.53;5.32;;;;;;;12.14;71.74;101323.34;4405024;32;20129;-70
2021/09/29 13:18:59;;;;;;;4.55;4.35;;;;;;;12.04;72.28;101328.19;4380940;32;20083;-70
2021/09/29 13:21:47;;;;;;;4.40;4.20;;;;;;;11.87;72.98;101328.13;4373752;32;20667;-70
2021/09/29 13:24:18;;;;;;;5.97;5.68;;;;;;;11.61;72.76;101266.25;4391448;32;20072;-70
2021/09/29 13:26:59;;;;;;;4.43;4.22;;;;;;;11.90;73.43;101293.81;4377117;32;20062;-70
2021/09/29 13:37:21;;;;;;;4.50;4.30;;;;;;;12.98;72.35;101360.38;4394202;32;20084;-70
2021/09/29 13:39:47;;;;;;;4.72;4.53;;;;;;;13.31;73.09;101364.84;4385392;32;20065;-70
2021/09/29 13:42:12;;;;;;;6.25;5.95;;;;;;;13.61;69.49;101361.50;4374507;32;20164;-71